sensor_id;sensor_type;location;lat;lon;timestamp;pressure;altitude;pressure_sealevel;temperature;humidity
31331;BME280;34067;39.548;-76.088;2023-06-10T00:01:33;100820.68;;;16.56;46.66
31331;BME280;34067;39.548;-76.088;2023-06-10T00:04:00;100818.75;;;17.03;46.67
31331;BME280;34067;39.548;-76.088;2023-06-10T00:06:28;100822.94;;;16.19;51.11
31331;BME280;34067;39.548;-76.088;2023-06-10T00:08:56;100840.34;;;15.35;52.68
31331;BME280;34067;39.548;-76.088;2023-06-10T00:11:23;100839.43;;;15.34;56.49
31331;BME280;34067;39.548;-76.088;2023-06-10T00:13:52;100851.20;;;15.30;57.54
31331;BME280;34067;39.548;-76.088;2023-06-10T00:16:20;100865.95;;;14.42;64.57
31331;BME280;34067;39.548;-76.088;2023-06-10T00:18:48;100845.84;;;14.75;65.48
31331;BME280;34067;39.548;-76.088;2023-06-10T00:21:16;100842.85;;;14.65;67.89
31331;BME280;34067;39.548;-76.088;2023-06-10T00:23:44;100837.71;;;14.68;69.89
31331;BME280;34067;39.548;-76.088;2023-06-10T00:26:12;100838.80;;;15.15;71.39
31331;BME280;34067;39.548;-76.088;2023-06-10T00:28:40;100839.92;;;14.64;72.77
31331;BME280;34067;39.548;-76.088;2023-06-10T00:31:08;100828.13;;;15.06;71.03
31331;BME280;34067;39.548;-76.088;2023-06-10T00:33:35;100843.80;;;14.39;73.73
31331;BME280;34067;39.548;-76.088;2023-06-10T00:36:04;100815.07;;;14.93;76.76
31331;BME280;34067;39.548;-76.088;2023-06-10T00:38:32;100828.77;;;13.64;84.86
31331;BME280;34067;39.548;-76.088;2023-06-10T00:41:00;100841.90;;;14.27;79.55
31331;BME280;34067;39.548;-76.088;2023-06-10T00:43:28;100844.27;;;14.21;78.50
31331;BME280;34067;39.548;-76.088;2023-06-10T00:45:56;100852.10;;;13.72;79.59
31331;BME280;34067;39.548;-76.088;2023-06-10T00:48:24;100848.11;;;13.70;79.42
31331;BME280;34067;39.548;-76.088;2023-06-10T00:50:53;100846.02;;;14.00;79.74
31331;BME280;34067;39.548;-76.088;2023-06-10T00:53:22;100850.13;;;15.15;76.26
31331;BME280;34067;39.548;-76.088;2023-06-10T00:55:51;100855.93;;;13.57;79.45
31331;BME280;34067;39.548;-76.088;2023-06-10T00:58:18;100849.36;;;13.82;80.08
31331;BME280;34067;39.548;-76.088;2023-06-10T01:00:46;100852.43;;;13.11;81.60
31331;BME280;34067;39.548;-76.088;2023-06-10T01:03:15;100845.31;;;14.48;78.96
31331;BME280;34067;39.548;-76.088;2023-06-10T01:05:42;100850.03;;;14.18;81.13
31331;BME280;34067;39.548;-76.088;2023-06-10T01:08:16;100852.62;;;14.41;79.60
31331;BME280;34067;39.548;-76.088;2023-06-10T01:10:52;100849.29;;;15.49;75.31
31331;BME280;34067;39.548;-76.088;2023-06-10T01:13:23;100852.37;;;14.88;77.11
31331;BME280;34067;39.548;-76.088;2023-06-10T01:15:52;100851.55;;;15.52;77.77
31331;BME280;34067;39.548;-76.088;2023-06-10T01:18:20;100852.52;;;14.19;80.37
31331;BME280;34067;39.548;-76.088;2023-06-10T01:20:48;100849.39;;;15.10;77.89
31331;BME280;34067;39.548;-76.088;2023-06-10T01:23:16;100850.25;;;15.48;74.34
31331;BME280;34067;39.548;-76.088;2023-06-10T01:25:47;100853.51;;;14.16;77.72
31331;BME280;34067;39.548;-76.088;2023-06-10T01:28:21;100857.29;;;16.35;75.95
31331;BME280;34067;39.548;-76.088;2023-06-10T01:30:59;100861.27;;;14.82;75.66
31331;BME280;34067;39.548;-76.088;2023-06-10T01:33:31;100861.57;;;15.86;72.98
31331;BME280;34067;39.548;-76.088;2023-06-10T01:36:03;100868.26;;;14.62;76.19
31331;BME280;34067;39.548;-76.088;2023-06-10T01:38:36;100866.55;;;14.90;73.88
31331;BME280;34067;39.548;-76.088;2023-06-10T01:41:07;100868.85;;;15.45;71.78
31331;BME280;34067;39.548;-76.088;2023-06-10T01:43:38;100872.95;;;15.78;71.21
31331;BME280;34067;39.548;-76.088;2023-06-10T01:46:06;100878.10;;;15.16;75.98
31331;BME280;34067;39.548;-76.088;2023-06-10T01:48:34;100874.09;;;16.15;72.12
31331;BME280;34067;39.548;-76.088;2023-06-10T01:51:02;100880.27;;;15.31;71.72
31331;BME280;34067;39.548;-76.088;2023-06-10T01:53:30;100883.30;;;14.63;72.51
31331;BME280;34067;39.548;-76.088;2023-06-10T01:55:58;100888.35;;;13.67;74.78
31331;BME280;34067;39.548;-76.088;2023-06-10T01:58:26;100885.69;;;12.83;78.46
31331;BME280;34067;39.548;-76.088;2023-06-10T02:00:54;100889.53;;;13.57;80.66
31331;BME280;34067;39.548;-76.088;2023-06-10T02:03:22;100912.06;;;13.23;80.23
31331;BME280;34067;39.548;-76.088;2023-06-10T02:05:51;100896.79;;;13.38;78.24
31331;BME280;34067;39.548;-76.088;2023-06-10T02:08:19;100894.02;;;13.14;80.84
31331;BME280;34067;39.548;-76.088;2023-06-10T02:10:47;100895.90;;;13.12;83.05
31331;BME280;34067;39.548;-76.088;2023-06-10T02:13:15;100889.58;;;13.94;81.08
31331;BME280;34067;39.548;-76.088;2023-06-10T02:15:53;100885.45;;;13.67;81.08
31331;BME280;34067;39.548;-76.088;2023-06-10T02:18:22;100890.75;;;14.52;78.54
31331;BME280;34067;39.548;-76.088;2023-06-10T02:20:50;100893.90;;;14.42;75.77
31331;BME280;34067;39.548;-76.088;2023-06-10T02:23:18;100888.33;;;15.87;74.18
31331;BME280;34067;39.548;-76.088;2023-06-10T02:25:46;100888.24;;;15.83;72.03
31331;BME280;34067;39.548;-76.088;2023-06-10T02:28:14;100887.24;;;15.33;73.47
31331;BME280;34067;39.548;-76.088;2023-06-10T02:30:43;100897.77;;;15.41;75.89
31331;BME280;34067;39.548;-76.088;2023-06-10T02:33:11;100898.34;;;15.33;71.93
31331;BME280;34067;39.548;-76.088;2023-06-10T02:35:40;100896.65;;;15.37;72.64
31331;BME280;34067;39.548;-76.088;2023-06-10T02:38:08;100903.37;;;14.70;73.83
31331;BME280;34067;39.548;-76.088;2023-06-10T02:40:35;100903.56;;;15.27;73.87
31331;BME280;34067;39.548;-76.088;2023-06-10T02:43:03;100903.67;;;14.82;75.20
31331;BME280;34067;39.548;-76.088;2023-06-10T02:45:31;100904.66;;;14.38;76.37
31331;BME280;34067;39.548;-76.088;2023-06-10T02:47:59;100900.26;;;14.38;79.94
31331;BME280;34067;39.548;-76.088;2023-06-10T02:50:27;100892.38;;;15.00;78.04
31331;BME280;34067;39.548;-76.088;2023-06-10T02:52:55;100889.14;;;14.79;79.23
31331;BME280;34067;39.548;-76.088;2023-06-10T02:55:23;100885.47;;;15.36;72.65
31331;BME280;34067;39.548;-76.088;2023-06-10T02:57:51;100880.94;;;15.14;73.31
31331;BME280;34067;39.548;-76.088;2023-06-10T03:00:18;100876.32;;;15.41;71.70
31331;BME280;34067;39.548;-76.088;2023-06-10T03:02:46;100885.33;;;14.75;73.89
31331;BME280;34067;39.548;-76.088;2023-06-10T03:05:14;100890.16;;;14.21;76.81
31331;BME280;34067;39.548;-76.088;2023-06-10T03:07:43;100890.90;;;13.94;79.59
31331;BME280;34067;39.548;-76.088;2023-06-10T03:10:11;100889.08;;;12.93;80.10
31331;BME280;34067;39.548;-76.088;2023-06-10T03:12:39;100891.02;;;14.45;75.91
31331;BME280;34067;39.548;-76.088;2023-06-10T03:15:07;100893.87;;;14.69;73.36
31331;BME280;34067;39.548;-76.088;2023-06-10T03:17:35;100893.27;;;15.12;73.28
31331;BME280;34067;39.548;-76.088;2023-06-10T03:20:04;100888.05;;;15.28;72.18
31331;BME280;34067;39.548;-76.088;2023-06-10T03:22:32;100879.21;;;14.98;72.78
31331;BME280;34067;39.548;-76.088;2023-06-10T03:25:00;100884.06;;;15.34;70.62
31331;BME280;34067;39.548;-76.088;2023-06-10T03:27:27;100896.35;;;14.02;72.93
31331;BME280;34067;39.548;-76.088;2023-06-10T03:29:55;100895.70;;;14.33;73.43
31331;BME280;34067;39.548;-76.088;2023-06-10T03:32:23;100891.05;;;15.24;72.16
31331;BME280;34067;39.548;-76.088;2023-06-10T03:34:51;100890.73;;;14.02;78.02
31331;BME280;34067;39.548;-76.088;2023-06-10T03:37:19;100896.11;;;13.66;76.86
31331;BME280;34067;39.548;-76.088;2023-06-10T03:39:47;100886.15;;;13.74;78.86
31331;BME280;34067;39.548;-76.088;2023-06-10T03:42:15;100891.87;;;12.82;79.40
31331;BME280;34067;39.548;-76.088;2023-06-10T03:44:43;100892.07;;;14.04;76.85
31331;BME280;34067;39.548;-76.088;2023-06-10T03:47:11;100894.84;;;12.42;79.94
31331;BME280;34067;39.548;-76.088;2023-06-10T03:49:39;100887.60;;;13.32;81.50
31331;BME280;34067;39.548;-76.088;2023-06-10T03:52:07;100887.37;;;14.60;78.38
31331;BME280;34067;39.548;-76.088;2023-06-10T03:54:35;100882.47;;;13.17;80.05
31331;BME280;34067;39.548;-76.088;2023-06-10T03:57:04;100882.13;;;13.57;80.69
31331;BME280;34067;39.548;-76.088;2023-06-10T03:59:32;100885.87;;;13.38;81.88
31331;BME280;34067;39.548;-76.088;2023-06-10T04:02:00;100884.17;;;13.45;82.18
31331;BME280;34067;39.548;-76.088;2023-06-10T04:04:28;100884.50;;;13.52;81.95
31331;BME280;34067;39.548;-76.088;2023-06-10T04:06:55;100891.17;;;13.38;82.10
31331;BME280;34067;39.548;-76.088;2023-06-10T04:09:24;100896.39;;;12.61;84.62
31331;BME280;34067;39.548;-76.088;2023-06-10T04:11:53;100897.23;;;12.42;85.65
31331;BME280;34067;39.548;-76.088;2023-06-10T04:14:21;100897.70;;;12.20;87.08
31331;BME280;34067;39.548;-76.088;2023-06-10T04:16:49;100889.60;;;12.54;85.34
31331;BME280;34067;39.548;-76.088;2023-06-10T04:19:17;100894.38;;;13.58;83.36
31331;BME280;34067;39.548;-76.088;2023-06-10T04:21:45;100889.83;;;12.70;84.84
31331;BME280;34067;39.548;-76.088;2023-06-10T04:24:13;100879.78;;;13.26;83.46
31331;BME280;34067;39.548;-76.088;2023-06-10T04:26:41;100875.21;;;13.58;82.12
31331;BME280;34067;39.548;-76.088;2023-06-10T04:29:09;100882.17;;;13.43;81.57
31331;BME280;34067;39.548;-76.088;2023-06-10T04:31:37;100876.55;;;12.42;85.08
31331;BME280;34067;39.548;-76.088;2023-06-10T04:34:04;100874.32;;;12.21;85.93
31331;BME280;34067;39.548;-76.088;2023-06-10T04:36:32;100874.17;;;13.43;82.81
31331;BME280;34067;39.548;-76.088;2023-06-10T04:38:59;100874.02;;;12.03;85.95
31331;BME280;34067;39.548;-76.088;2023-06-10T04:41:28;100874.46;;;12.33;85.95
31331;BME280;34067;39.548;-76.088;2023-06-10T04:43:56;100873.88;;;12.93;86.29
31331;BME280;34067;39.548;-76.088;2023-06-10T04:46:24;100873.85;;;12.49;85.78
31331;BME280;34067;39.548;-76.088;2023-06-10T04:48:52;100874.61;;;13.04;84.37
31331;BME280;34067;39.548;-76.088;2023-06-10T04:51:19;100871.71;;;12.62;85.57
31331;BME280;34067;39.548;-76.088;2023-06-10T04:53:47;100874.40;;;13.51;82.66
31331;BME280;34067;39.548;-76.088;2023-06-10T04:56:16;100870.30;;;13.47;83.91
31331;BME280;34067;39.548;-76.088;2023-06-10T04:58:44;100862.47;;;13.21;82.46
31331;BME280;34067;39.548;-76.088;2023-06-10T05:03:15;100860.67;;;13.79;79.32
31331;BME280;34067;39.548;-76.088;2023-06-10T05:05:43;100865.33;;;13.69;79.89
31331;BME280;34067;39.548;-76.088;2023-06-10T05:08:11;100861.06;;;13.75;76.99
31331;BME280;34067;39.548;-76.088;2023-06-10T05:10:38;100860.19;;;14.37;74.72
31331;BME280;34067;39.548;-76.088;2023-06-10T05:13:07;100858.86;;;14.15;75.44
31331;BME280;34067;39.548;-76.088;2023-06-10T05:15:35;100858.78;;;13.63;76.68
31331;BME280;34067;39.548;-76.088;2023-06-10T05:18:02;100854.04;;;13.52;76.67
31331;BME280;34067;39.548;-76.088;2023-06-10T05:20:30;100855.67;;;14.21;76.57
31331;BME280;34067;39.548;-76.088;2023-06-10T05:22:58;100852.98;;;13.75;76.01
31331;BME280;34067;39.548;-76.088;2023-06-10T05:25:28;100847.44;;;14.32;74.00
31331;BME280;34067;39.548;-76.088;2023-06-10T05:27:58;100845.73;;;14.50;73.71
31331;BME280;34067;39.548;-76.088;2023-06-10T05:30:26;100844.99;;;14.94;75.16
31331;BME280;34067;39.548;-76.088;2023-06-10T05:32:54;100842.10;;;13.49;79.11
31331;BME280;34067;39.548;-76.088;2023-06-10T05:35:22;100843.22;;;13.08;79.34
31331;BME280;34067;39.548;-76.088;2023-06-10T05:37:50;100838.88;;;13.39;78.54
31331;BME280;34067;39.548;-76.088;2023-06-10T05:40:18;100836.76;;;14.35;76.41
31331;BME280;34067;39.548;-76.088;2023-06-10T05:42:46;100834.92;;;14.82;74.17
31331;BME280;34067;39.548;-76.088;2023-06-10T05:45:14;100844.02;;;14.41;73.63
31331;BME280;34067;39.548;-76.088;2023-06-10T05:47:42;100842.29;;;14.61;74.12
31331;BME280;34067;39.548;-76.088;2023-06-10T05:50:11;100842.56;;;14.38;75.69
31331;BME280;34067;39.548;-76.088;2023-06-10T05:52:38;100842.24;;;13.62;77.40
31331;BME280;34067;39.548;-76.088;2023-06-10T05:55:07;100838.23;;;13.70;76.41
31331;BME280;34067;39.548;-76.088;2023-06-10T05:57:34;100840.94;;;13.52;78.42
31331;BME280;34067;39.548;-76.088;2023-06-10T06:00:03;100840.83;;;13.91;80.58
31331;BME280;34067;39.548;-76.088;2023-06-10T06:02:31;100835.60;;;12.81;79.89
31331;BME280;34067;39.548;-76.088;2023-06-10T06:05:00;100831.00;;;14.40;79.19
31331;BME280;34067;39.548;-76.088;2023-06-10T06:07:27;100832.53;;;13.24;78.59
31331;BME280;34067;39.548;-76.088;2023-06-10T06:09:55;100832.01;;;13.94;79.95
31331;BME280;34067;39.548;-76.088;2023-06-10T06:12:23;100838.04;;;12.92;83.32
31331;BME280;34067;39.548;-76.088;2023-06-10T06:14:50;100840.41;;;13.43;80.44
31331;BME280;34067;39.548;-76.088;2023-06-10T06:17:18;100839.34;;;13.30;80.16
31331;BME280;34067;39.548;-76.088;2023-06-10T06:19:46;100838.44;;;12.98;83.52
31331;BME280;34067;39.548;-76.088;2023-06-10T06:22:14;100838.05;;;13.36;83.99
31331;BME280;34067;39.548;-76.088;2023-06-10T06:24:42;100836.25;;;13.61;81.59
31331;BME280;34067;39.548;-76.088;2023-06-10T06:27:10;100836.21;;;13.95;79.64
31331;BME280;34067;39.548;-76.088;2023-06-10T06:29:38;100835.21;;;14.46;78.29
31331;BME280;34067;39.548;-76.088;2023-06-10T06:32:06;100837.03;;;14.05;77.67
31331;BME280;34067;39.548;-76.088;2023-06-10T06:34:34;100840.42;;;14.52;79.91
31331;BME280;34067;39.548;-76.088;2023-06-10T06:37:02;100843.44;;;12.84;81.57
31331;BME280;34067;39.548;-76.088;2023-06-10T06:39:30;100838.86;;;14.05;79.13
31331;BME280;34067;39.548;-76.088;2023-06-10T06:41:58;100831.92;;;15.40;76.05
31331;BME280;34067;39.548;-76.088;2023-06-10T06:44:26;100830.94;;;14.07;76.23
31331;BME280;34067;39.548;-76.088;2023-06-10T06:46:53;100824.97;;;14.03;75.92
31331;BME280;34067;39.548;-76.088;2023-06-10T06:49:22;100822.83;;;14.46;73.77
31331;BME280;34067;39.548;-76.088;2023-06-10T06:51:50;100825.70;;;14.38;73.34
31331;BME280;34067;39.548;-76.088;2023-06-10T06:54:17;100822.04;;;13.77;76.85
31331;BME280;34067;39.548;-76.088;2023-06-10T06:56:46;100818.48;;;13.05;80.62
31331;BME280;34067;39.548;-76.088;2023-06-10T06:59:14;100827.16;;;13.86;78.86
31331;BME280;34067;39.548;-76.088;2023-06-10T07:01:42;100827.93;;;14.11;74.57
31331;BME280;34067;39.548;-76.088;2023-06-10T07:04:11;100829.23;;;14.46;73.59
31331;BME280;34067;39.548;-76.088;2023-06-10T07:06:39;100833.04;;;14.03;73.78
31331;BME280;34067;39.548;-76.088;2023-06-10T07:09:07;100833.55;;;13.74;74.74
31331;BME280;34067;39.548;-76.088;2023-06-10T07:11:35;100833.17;;;14.61;72.75
31331;BME280;34067;39.548;-76.088;2023-06-10T07:14:03;100830.72;;;12.99;77.88
31331;BME280;34067;39.548;-76.088;2023-06-10T07:16:31;100826.91;;;13.53;76.61
31331;BME280;34067;39.548;-76.088;2023-06-10T07:18:59;100825.72;;;13.09;80.01
31331;BME280;34067;39.548;-76.088;2023-06-10T07:21:26;100832.00;;;14.18;79.62
31331;BME280;34067;39.548;-76.088;2023-06-10T07:23:54;100827.92;;;13.34;86.10
31331;BME280;34067;39.548;-76.088;2023-06-10T07:26:22;100832.10;;;13.82;84.66
31331;BME280;34067;39.548;-76.088;2023-06-10T07:28:51;100823.78;;;13.92;84.85
31331;BME280;34067;39.548;-76.088;2023-06-10T07:31:19;100825.60;;;12.56;89.19
31331;BME280;34067;39.548;-76.088;2023-06-10T07:33:48;100822.97;;;12.70;93.07
31331;BME280;34067;39.548;-76.088;2023-06-10T07:36:15;100824.53;;;12.90;91.50
31331;BME280;34067;39.548;-76.088;2023-06-10T07:38:43;100823.11;;;13.24;85.70
31331;BME280;34067;39.548;-76.088;2023-06-10T07:41:11;100831.49;;;14.61;76.66
31331;BME280;34067;39.548;-76.088;2023-06-10T07:43:38;100832.92;;;13.44;76.95
31331;BME280;34067;39.548;-76.088;2023-06-10T07:46:06;100833.62;;;13.94;76.80
31331;BME280;34067;39.548;-76.088;2023-06-10T07:48:34;100834.86;;;13.34;78.04
31331;BME280;34067;39.548;-76.088;2023-06-10T07:51:01;100829.13;;;13.48;76.83
31331;BME280;34067;39.548;-76.088;2023-06-10T07:53:29;100827.07;;;12.84;78.75
31331;BME280;34067;39.548;-76.088;2023-06-10T07:55:57;100820.73;;;13.00;77.25
31331;BME280;34067;39.548;-76.088;2023-06-10T07:58:25;100820.26;;;13.87;76.55
31331;BME280;34067;39.548;-76.088;2023-06-10T08:00:54;100820.95;;;13.69;73.73
31331;BME280;34067;39.548;-76.088;2023-06-10T08:03:22;100820.53;;;15.07;71.95
31331;BME280;34067;39.548;-76.088;2023-06-10T08:05:50;100822.20;;;14.96;70.31
31331;BME280;34067;39.548;-76.088;2023-06-10T08:08:17;100827.82;;;14.79;70.66
31331;BME280;34067;39.548;-76.088;2023-06-10T08:10:45;100838.38;;;14.08;72.69
31331;BME280;34067;39.548;-76.088;2023-06-10T08:13:13;100838.77;;;14.30;71.08
31331;BME280;34067;39.548;-76.088;2023-06-10T08:15:41;100834.20;;;15.42;68.93
31331;BME280;34067;39.548;-76.088;2023-06-10T08:18:09;100842.67;;;14.90;69.99
31331;BME280;34067;39.548;-76.088;2023-06-10T08:20:37;100840.58;;;14.42;71.35
31331;BME280;34067;39.548;-76.088;2023-06-10T08:23:05;100838.19;;;14.46;70.87
31331;BME280;34067;39.548;-76.088;2023-06-10T08:25:33;100839.04;;;14.75;70.79
31331;BME280;34067;39.548;-76.088;2023-06-10T08:28:00;100833.78;;;15.80;68.40
31331;BME280;34067;39.548;-76.088;2023-06-10T08:30:28;100835.75;;;14.51;69.65
31331;BME280;34067;39.548;-76.088;2023-06-10T08:32:56;100833.33;;;15.26;69.78
31331;BME280;34067;39.548;-76.088;2023-06-10T08:35:24;100833.71;;;15.08;70.72
31331;BME280;34067;39.548;-76.088;2023-06-10T08:37:52;100836.51;;;13.24;76.41
31331;BME280;34067;39.548;-76.088;2023-06-10T08:40:20;100836.17;;;15.60;73.71
31331;BME280;34067;39.548;-76.088;2023-06-10T08:42:54;100835.96;;;13.48;78.20
31331;BME280;34067;39.548;-76.088;2023-06-10T08:45:30;100836.64;;;12.52;82.56
31331;BME280;34067;39.548;-76.088;2023-06-10T08:47:58;100842.36;;;13.84;80.17
31331;BME280;34067;39.548;-76.088;2023-06-10T08:50:26;100841.66;;;13.37;77.35
31331;BME280;34067;39.548;-76.088;2023-06-10T08:52:58;100842.69;;;13.60;75.51
31331;BME280;34067;39.548;-76.088;2023-06-10T08:55:29;100839.09;;;13.71;75.02
31331;BME280;34067;39.548;-76.088;2023-06-10T08:57:58;100838.47;;;14.28;74.39
31331;BME280;34067;39.548;-76.088;2023-06-10T09:00:27;100838.53;;;14.07;74.87
31331;BME280;34067;39.548;-76.088;2023-06-10T09:02:56;100837.23;;;13.83;75.23
31331;BME280;34067;39.548;-76.088;2023-06-10T09:05:24;100838.50;;;14.53;73.16
31331;BME280;34067;39.548;-76.088;2023-06-10T09:07:57;100842.78;;;13.85;74.47
31331;BME280;34067;39.548;-76.088;2023-06-10T09:10:25;100847.86;;;14.12;73.97
31331;BME280;34067;39.548;-76.088;2023-06-10T09:12:53;100843.67;;;14.35;72.82
31331;BME280;34067;39.548;-76.088;2023-06-10T09:15:21;100846.30;;;12.77;75.71
31331;BME280;34067;39.548;-76.088;2023-06-10T09:17:49;100851.31;;;14.31;71.92
31331;BME280;34067;39.548;-76.088;2023-06-10T09:20:18;100857.82;;;14.47;70.71
31331;BME280;34067;39.548;-76.088;2023-06-10T09:22:47;100866.53;;;15.62;68.21
31331;BME280;34067;39.548;-76.088;2023-06-10T09:25:14;100863.82;;;15.32;67.33
31331;BME280;34067;39.548;-76.088;2023-06-10T09:27:47;100856.70;;;15.47;66.55
31331;BME280;34067;39.548;-76.088;2023-06-10T09:30:26;100869.31;;;15.89;66.58
31331;BME280;34067;39.548;-76.088;2023-06-10T09:32:54;100877.53;;;15.77;65.63
31331;BME280;34067;39.548;-76.088;2023-06-10T09:35:24;100883.03;;;14.45;67.43
31331;BME280;34067;39.548;-76.088;2023-06-10T09:37:53;100878.30;;;15.19;65.74
31331;BME280;34067;39.548;-76.088;2023-06-10T09:40:21;100881.89;;;15.46;65.10
31331;BME280;34067;39.548;-76.088;2023-06-10T09:42:54;100887.38;;;15.41;67.19
31331;BME280;34067;39.548;-76.088;2023-06-10T09:45:22;100890.11;;;15.73;68.59
31331;BME280;34067;39.548;-76.088;2023-06-10T09:47:53;100890.36;;;14.69;72.31
31331;BME280;34067;39.548;-76.088;2023-06-10T09:50:21;100889.06;;;15.37;70.44
31331;BME280;34067;39.548;-76.088;2023-06-10T09:52:49;100886.26;;;15.64;68.61
31331;BME280;34067;39.548;-76.088;2023-06-10T09:55:18;100888.32;;;16.23;69.31
31331;BME280;34067;39.548;-76.088;2023-06-10T09:57:51;100892.32;;;15.74;72.73
31331;BME280;34067;39.548;-76.088;2023-06-10T10:00:23;100889.05;;;16.04;71.48
31331;BME280;34067;39.548;-76.088;2023-06-10T10:02:52;100888.99;;;16.33;71.87
31331;BME280;34067;39.548;-76.088;2023-06-10T10:05:22;100888.95;;;15.93;72.79
31331;BME280;34067;39.548;-76.088;2023-06-10T10:07:50;100887.97;;;15.21;76.74
31331;BME280;34067;39.548;-76.088;2023-06-10T10:10:19;100887.66;;;15.93;74.84
31331;BME280;34067;39.548;-76.088;2023-06-10T10:12:48;100890.48;;;16.07;74.71
31331;BME280;34067;39.548;-76.088;2023-06-10T10:15:19;100894.95;;;15.85;73.82
31331;BME280;34067;39.548;-76.088;2023-06-10T10:17:52;100904.35;;;16.25;73.33
31331;BME280;34067;39.548;-76.088;2023-06-10T10:20:27;100916.82;;;15.42;74.42
31331;BME280;34067;39.548;-76.088;2023-06-10T10:22:57;100925.47;;;13.84;82.80
31331;BME280;34067;39.548;-76.088;2023-06-10T10:25:28;100926.12;;;14.02;82.12
31331;BME280;34067;39.548;-76.088;2023-06-10T10:28:04;100930.23;;;13.79;81.60
31331;BME280;34067;39.548;-76.088;2023-06-10T10:30:37;100926.04;;;14.85;78.66
31331;BME280;34067;39.548;-76.088;2023-06-10T10:33:12;100930.42;;;14.58;77.16
31331;BME280;34067;39.548;-76.088;2023-06-10T10:35:40;100930.81;;;14.67;78.95
31331;BME280;34067;39.548;-76.088;2023-06-10T10:38:09;100929.59;;;15.52;73.95
31331;BME280;34067;39.548;-76.088;2023-06-10T10:40:38;100927.67;;;16.25;71.44
31331;BME280;34067;39.548;-76.088;2023-06-10T10:43:08;100931.05;;;15.74;69.88
31331;BME280;34067;39.548;-76.088;2023-06-10T10:45:36;100928.90;;;16.19;68.07
31331;BME280;34067;39.548;-76.088;2023-06-10T10:48:07;100934.84;;;15.84;69.03
31331;BME280;34067;39.548;-76.088;2023-06-10T10:50:36;100943.50;;;15.71;69.50
31331;BME280;34067;39.548;-76.088;2023-06-10T10:53:05;100942.19;;;16.20;66.58
31331;BME280;34067;39.548;-76.088;2023-06-10T10:55:33;100944.79;;;15.45;66.58
31331;BME280;34067;39.548;-76.088;2023-06-10T10:58:05;100941.29;;;16.46;67.59
31331;BME280;34067;39.548;-76.088;2023-06-10T11:00:34;100944.50;;;15.65;70.06
31331;BME280;34067;39.548;-76.088;2023-06-10T11:03:06;100946.80;;;16.14;73.21
31331;BME280;34067;39.548;-76.088;2023-06-10T11:05:38;100944.73;;;16.79;68.09
31331;BME280;34067;39.548;-76.088;2023-06-10T11:08:08;100949.89;;;17.05;66.83
31331;BME280;34067;39.548;-76.088;2023-06-10T11:10:36;100947.00;;;17.22;66.67
31331;BME280;34067;39.548;-76.088;2023-06-10T11:13:07;100947.92;;;16.43;73.52
31331;BME280;34067;39.548;-76.088;2023-06-10T11:15:40;100955.20;;;15.62;75.76
31331;BME280;34067;39.548;-76.088;2023-06-10T11:18:20;100954.36;;;15.05;75.82
31331;BME280;34067;39.548;-76.088;2023-06-10T11:20:54;100951.18;;;15.46;77.41
31331;BME280;34067;39.548;-76.088;2023-06-10T11:23:43;100955.79;;;15.87;77.99
31331;BME280;34067;39.548;-76.088;2023-06-10T11:26:44;100956.81;;;15.94;79.27
31331;BME280;34067;39.548;-76.088;2023-06-10T11:29:15;100957.84;;;14.68;85.27
31331;BME280;34067;39.548;-76.088;2023-06-10T11:31:45;100959.30;;;15.47;83.98
31331;BME280;34067;39.548;-76.088;2023-06-10T11:34:22;100954.56;;;14.80;79.05
31331;BME280;34067;39.548;-76.088;2023-06-10T11:36:50;100956.61;;;16.17;80.08
31331;BME280;34067;39.548;-76.088;2023-06-10T11:39:20;100958.05;;;15.48;78.33
31331;BME280;34067;39.548;-76.088;2023-06-10T11:41:48;100953.04;;;16.00;75.30
31331;BME280;34067;39.548;-76.088;2023-06-10T11:44:16;100958.68;;;16.07;79.53
31331;BME280;34067;39.548;-76.088;2023-06-10T11:46:47;100963.09;;;16.08;78.29
31331;BME280;34067;39.548;-76.088;2023-06-10T11:49:15;100960.60;;;15.62;79.69
31331;BME280;34067;39.548;-76.088;2023-06-10T11:51:44;100968.32;;;14.27;84.89
31331;BME280;34067;39.548;-76.088;2023-06-10T11:54:11;100965.64;;;16.50;81.69
31331;BME280;34067;39.548;-76.088;2023-06-10T11:56:39;100958.25;;;15.96;78.84
31331;BME280;34067;39.548;-76.088;2023-06-10T11:59:07;100956.24;;;16.72;77.58
31331;BME280;34067;39.548;-76.088;2023-06-10T12:01:37;100962.48;;;15.78;79.01
31331;BME280;34067;39.548;-76.088;2023-06-10T12:04:06;100965.33;;;15.42;79.00
31331;BME280;34067;39.548;-76.088;2023-06-10T12:06:39;100955.15;;;16.33;78.52
31331;BME280;34067;39.548;-76.088;2023-06-10T12:09:14;100954.75;;;15.99;77.62
31331;BME280;34067;39.548;-76.088;2023-06-10T12:11:42;100960.41;;;17.07;76.28
31331;BME280;34067;39.548;-76.088;2023-06-10T12:14:11;100960.57;;;16.11;78.71
31331;BME280;34067;39.548;-76.088;2023-06-10T12:16:39;100961.21;;;15.25;78.71
31331;BME280;34067;39.548;-76.088;2023-06-10T12:19:07;100960.59;;;15.46;78.00
31331;BME280;34067;39.548;-76.088;2023-06-10T12:21:37;100963.73;;;16.37;81.11
31331;BME280;34067;39.548;-76.088;2023-06-10T12:24:07;100959.34;;;16.21;79.40
31331;BME280;34067;39.548;-76.088;2023-06-10T12:26:37;100964.37;;;16.13;77.98
31331;BME280;34067;39.548;-76.088;2023-06-10T12:29:18;100960.18;;;16.61;78.73
31331;BME280;34067;39.548;-76.088;2023-06-10T12:32:04;100960.42;;;16.54;79.66
31331;BME280;34067;39.548;-76.088;2023-06-10T12:34:35;100961.49;;;15.81;79.11
31331;BME280;34067;39.548;-76.088;2023-06-10T12:37:06;100958.38;;;16.44;76.94
31331;BME280;34067;39.548;-76.088;2023-06-10T12:39:34;100955.94;;;17.13;74.13
31331;BME280;34067;39.548;-76.088;2023-06-10T12:42:03;100958.27;;;16.30;73.82